Time;durP1;ratioP1;P1;durP2;ratioP2;P2;SDS_P1;SDS_P2;PMS_P1;PMS_P2;Temp;Humidity;BMP_temperature;BMP_pressure;BME280_temperature;BME280_humidity;BME280_pressure;Samples;Min_cycle;Max_cycle;Signal;HPM_P1;HPM_P2
2022/12/04 00:01:36;;;;;;;48.10;19.10;;;;;;;4.26;58.72;102016.94;5056176;28;20070;-41
2022/12/04 00:04:02;;;;;;;51.78;20.02;;;;;;;4.04;59.80;102013.13;5054870;28;20083;-42
2022/12/04 00:06:28;;;;;;;49.75;20.25;;;;;;;4.21;59.07;102015.78;5053865;28;20017;-41
2022/12/04 00:08:54;;;;;;;54.00;19.42;;;;;;;4.59;58.26;102008.47;5053161;28;20389;-44
2022/12/04 00:11:22;;;;;;;49.47;19.42;;;;;;;4.61;58.56;102006.00;5052874;28;20328;-41
2022/12/04 00:13:48;;;;;;;48.13;19.05;;;;;;;4.08;59.42;102003.88;5052701;28;20082;-43
2022/12/04 00:16:17;;;;;;;52.08;19.77;;;;;;;4.21;59.25;102008.91;5053643;28;20021;-40
2022/12/04 00:18:43;;;;;;;52.33;20.17;;;;;;;4.68;58.44;102003.84;5055614;28;20025;-39
2022/12/04 00:21:10;;;;;;;49.20;19.60;;;;;;;4.35;59.37;102007.13;5054995;28;20036;-42
2022/12/04 00:23:37;;;;;;;51.72;20.67;;;;;;;4.43;58.73;102000.69;5052425;28;20032;-44
2022/12/04 00:26:05;;;;;;;48.92;20.17;;;;;;;4.32;59.06;101996.63;5052650;28;20029;-43
2022/12/04 00:28:31;;;;;;;48.58;19.52;;;;;;;4.42;58.90;101994.66;5052249;28;20021;-40
2022/12/04 00:30:57;;;;;;;54.33;19.98;;;;;;;4.12;59.78;101997.19;5051873;28;20040;-41
2022/12/04 00:33:22;;;;;;;53.80;20.65;;;;;;;4.37;58.87;101993.50;5052172;28;20021;-41
2022/12/04 00:35:47;;;;;;;48.90;19.85;;;;;;;4.01;59.53;101996.59;5051998;28;20035;-41
2022/12/04 00:38:13;;;;;;;53.72;21.02;;;;;;;4.32;59.01;101997.53;5052213;28;20050;-41
2022/12/04 00:40:38;;;;;;;53.63;20.10;;;;;;;4.40;58.79;101995.34;5051990;28;20085;-41
2022/12/04 00:43:03;;;;;;;52.50;19.80;;;;;;;4.26;59.30;102007.50;5051841;28;20064;-41
2022/12/04 00:45:29;;;;;;;52.00;20.02;;;;;;;4.21;59.75;102006.31;5052252;28;20017;-45
2022/12/04 00:47:54;;;;;;;49.97;19.60;;;;;;;4.32;59.72;102012.13;5052105;28;20029;-42
2022/12/04 00:50:19;;;;;;;54.78;20.15;;;;;;;4.41;59.13;102004.88;5051495;28;20016;-44
2022/12/04 00:52:45;;;;;;;51.75;20.08;;;;;;;4.33;59.20;101995.84;5052131;28;20036;-44
2022/12/04 00:55:10;;;;;;;48.95;19.60;;;;;;;4.27;59.46;101993.78;5052200;28;20021;-44
2022/12/04 00:57:35;;;;;;;52.28;20.33;;;;;;;4.36;59.42;101994.31;5051859;28;20025;-42
2022/12/04 01:00:02;;;;;;;49.20;19.98;;;;;;;4.29;59.44;101988.69;5053543;28;20048;-41
2022/12/04 01:02:29;;;;;;;53.00;20.05;;;;;;;4.66;58.95;101994.22;5054781;28;20544;-41
2022/12/04 01:04:54;;;;;;;52.35;20.33;;;;;;;4.47;58.89;102000.06;5053690;28;20020;-41
2022/12/04 01:07:20;;;;;;;50.72;19.60;;;;;;;4.27;59.23;101988.59;5052737;28;20147;-41
2022/12/04 01:09:45;;;;;;;54.25;20.30;;;;;;;4.47;59.09;101994.91;5052503;28;20393;-43
2022/12/04 01:12:10;;;;;;;53.55;20.38;;;;;;;4.17;60.27;102000.91;5051056;28;20032;-41
2022/12/04 01:14:36;;;;;;;54.17;19.73;;;;;;;4.47;59.23;101998.38;5051954;28;20040;-40
2022/12/04 01:17:01;;;;;;;54.40;20.45;;;;;;;4.59;59.21;102000.72;5051911;28;20031;-43
2022/12/04 01:19:26;;;;;;;53.05;20.92;;;;;;;4.48;58.83;101994.09;5053543;28;20037;-42
2022/12/04 01:21:52;;;;;;;54.70;21.67;;;;;;;4.41;59.47;101991.97;5051908;28;20043;-42
2022/12/04 01:24:17;;;;;;;56.25;20.95;;;;;;;4.50;59.00;101995.06;5052146;28;20516;-43
2022/12/04 01:26:42;;;;;;;50.95;20.52;;;;;;;4.57;58.90;101991.16;5053183;28;20025;-42
2022/12/04 01:29:07;;;;;;;53.72;20.80;;;;;;;4.72;58.54;101984.22;5054776;28;20033;-43
2022/12/04 01:31:33;;;;;;;53.03;20.90;;;;;;;4.30;59.69;102003.38;5055399;28;20642;-42
2022/12/04 01:33:58;;;;;;;55.00;21.60;;;;;;;4.78;59.02;101989.72;5055618;28;20043;-40
2022/12/04 01:36:26;;;;;;;56.00;22.40;;;;;;;4.68;59.10;101990.03;5055532;28;20039;-39
2022/12/04 01:38:52;;;;;;;56.38;21.35;;;;;;;4.28;59.06;101992.97;5055215;28;20052;-41
2022/12/04 01:41:24;;;;;;;54.85;21.88;;;;;;;4.35;59.18;101989.03;5056493;28;20044;-40
2022/12/04 01:44:08;;;;;;;53.08;20.52;;;;;;;4.72;58.75;101990.28;5056513;28;20029;-43
2022/12/04 01:46:34;;;;;;;55.83;20.80;;;;;;;4.52;59.26;101990.88;5051060;28;20021;-41
2022/12/04 01:48:59;;;;;;;52.05;21.50;;;;;;;4.26;59.60;101988.53;5051383;28;20029;-41
2022/12/04 01:51:32;;;;;;;54.80;21.83;;;;;;;4.40;59.85;101985.03;5050774;28;20087;-40
2022/12/04 01:54:01;;;;;;;60.17;21.30;;;;;;;4.47;59.18;101987.16;5051535;28;20029;-38
2022/12/04 01:56:43;;;;;;;57.53;22.17;;;;;;;4.30;59.64;101991.38;5052140;28;20152;-41
2022/12/04 01:59:09;;;;;;;58.53;21.52;;;;;;;4.26;60.25;101994.59;5051490;28;20431;-43
2022/12/04 02:01:43;;;;;;;56.53;22.20;;;;;;;4.47;59.63;101995.78;5050818;28;20027;-43
2022/12/04 02:04:08;;;;;;;55.75;21.27;;;;;;;4.46;59.26;101986.25;5050980;28;20086;-40
2022/12/04 02:06:33;;;;;;;54.63;21.70;;;;;;;4.67;59.23;101990.84;5051003;28;20021;-43
2022/12/04 02:08:59;;;;;;;54.80;20.95;;;;;;;4.73;58.94;101989.47;5053447;28;20393;-42
2022/12/04 02:11:30;;;;;;;57.95;21.95;;;;;;;4.37;59.62;101996.09;5052340;28;20032;-43
2022/12/04 02:14:24;;;;;;;54.97;20.90;;;;;;;4.59;59.40;101995.56;5050692;28;20056;-43
2022/12/04 02:16:57;;;;;;;59.28;22.63;;;;;;;4.22;60.49;101997.78;5029657;28;20052;-43
2022/12/04 02:19:44;;;;;;;61.20;21.92;;;;;;;4.28;60.28;101992.97;5051062;28;20028;-42
2022/12/04 02:22:26;;;;;;;57.42;21.15;;;;;;;4.38;60.04;101996.97;5050668;28;20021;-42
2022/12/04 02:25:29;;;;;;;57.15;21.58;;;;;;;4.73;59.59;101991.16;5051863;28;20436;-40
2022/12/04 02:28:03;;;;;;;57.90;21.42;;;;;;;4.60;59.43;101984.44;5044488;28;20076;-41
2022/12/04 02:30:30;;;;;;;57.78;22.27;;;;;;;4.66;59.12;101989.94;5051404;28;20024;-42
2022/12/04 02:33:15;;;;;;;54.97;20.80;;;;;;;4.86;58.85;101976.41;5053397;28;20528;-42
2022/12/04 02:35:48;;;;;;;55.85;21.38;;;;;;;4.78;59.11;101981.97;5054259;28;20044;-41
2022/12/04 02:38:34;;;;;;;56.97;22.80;;;;;;;4.61;59.99;101982.75;5054848;28;20440;-43
2022/12/04 02:41:13;;;;;;;60.47;22.35;;;;;;;4.40;59.96;101982.44;5052666;28;20028;-42
2022/12/04 02:43:44;;;;;;;57.75;22.63;;;;;;;4.41;60.27;101987.69;5054328;28;20098;-44
2022/12/04 02:46:19;;;;;;;55.35;22.25;;;;;;;4.47;59.83;101977.72;5055133;28;20488;-45
2022/12/04 02:48:47;;;;;;;54.90;21.55;;;;;;;4.35;60.47;101970.97;5055519;28;20047;-39
2022/12/04 02:51:17;;;;;;;58.90;22.08;;;;;;;4.44;60.02;101963.75;5056486;28;20029;-39
2022/12/04 02:53:49;;;;;;;57.05;21.60;;;;;;;4.64;59.56;101963.13;5056233;28;20400;-43
2022/12/04 02:56:20;;;;;;;62.50;22.67;;;;;;;4.33;60.34;101965.72;5054830;28;20552;-42
2022/12/04 02:59:01;;;;;;;55.35;21.90;;;;;;;4.19;60.39;101965.78;5055798;28;20124;-40
2022/12/04 03:01:32;;;;;;;59.42;21.33;;;;;;;4.60;60.21;101961.19;5055172;28;20029;-40
2022/12/04 03:04:07;;;;;;;56.08;22.08;;;;;;;4.16;60.36;101963.88;5054287;28;20024;-42
2022/12/04 03:06:38;;;;;;;58.80;22.23;;;;;;;4.60;59.98;101955.13;5053702;28;20105;-41
2022/12/04 03:09:21;;;;;;;57.90;21.90;;;;;;;4.33;60.34;101959.69;5050607;28;20029;-42
2022/12/04 03:11:52;;;;;;;51.88;20.13;;;;;;;4.48;60.26;101947.63;5049755;28;20450;-43
2022/12/04 03:14:23;;;;;;;57.53;22.70;;;;;;;4.33;60.11;101949.38;5064917;23;20103;-41
2022/12/04 03:16:52;;;;;;;62.13;22.25;;;;;;;4.69;59.46;101951.38;5050521;28;20465;-45
2022/12/04 03:19:23;;;;;;;58.95;22.17;;;;;;;4.80;59.80;101952.84;5050166;28;20028;-42
2022/12/04 03:21:53;;;;;;;54.05;21.67;;;;;;;4.76;59.50;101956.03;5050399;28;20024;-46
2022/12/04 03:24:24;;;;;;;56.00;21.40;;;;;;;4.85;59.31;101960.81;5051914;28;20027;-43
2022/12/04 03:26:59;;;;;;;57.25;21.25;;;;;;;4.69;59.84;101958.25;5052835;28;20450;-42
2022/12/04 03:29:27;;;;;;;58.08;22.00;;;;;;;4.52;60.35;101946.97;5052870;28;20056;-44
2022/12/04 03:32:02;;;;;;;59.15;22.42;;;;;;;4.38;60.84;101956.56;5051471;28;20096;-43
2022/12/04 03:34:37;;;;;;;59.58;22.27;;;;;;;4.53;60.39;101961.66;5053766;28;20040;-44
2022/12/04 03:37:09;;;;;;;59.70;22.98;;;;;;;4.41;60.79;101958.41;5055666;28;20017;-47
2022/12/04 03:39:55;;;;;;;58.45;21.73;;;;;;;4.83;59.86;101959.84;5055931;28;20017;-41
2022/12/04 03:42:25;;;;;;;57.38;22.10;;;;;;;4.72;59.63;101954.13;5055608;28;20033;-43
2022/12/04 03:44:59;;;;;;;56.75;21.42;;;;;;;4.74;59.98;101954.19;5055425;28;20017;-41
2022/12/04 03:47:36;;;;;;;59.42;22.40;;;;;;;4.76;59.80;101945.72;5055660;28;20609;-43
2022/12/04 03:50:15;;;;;;;57.80;21.88;;;;;;;4.60;60.32;101937.06;5055365;28;20028;-43
2022/12/04 03:52:51;;;;;;;56.50;22.02;;;;;;;4.57;60.76;101935.22;5054607;28;20029;-46
2022/12/04 03:55:28;;;;;;;53.97;22.27;;;;;;;4.70;60.22;101937.63;5054861;28;20033;-42
2022/12/04 03:57:59;;;;;;;57.78;22.17;;;;;;;4.80;59.20;101939.91;5056016;28;20384;-43
2022/12/04 04:00:25;;;;;;;56.85;22.40;;;;;;;4.80;59.35;101934.75;5055268;28;20017;-45
2022/12/04 04:02:57;;;;;;;59.97;22.83;;;;;;;4.55;59.50;101939.41;5054232;28;20432;-46
2022/12/04 04:05:24;;;;;;;57.97;22.38;;;;;;;4.53;60.24;101935.84;5052539;28;20523;-44
2022/12/04 04:08:24;;;;;;;59.13;22.55;;;;;;;4.88;59.98;101936.03;5052562;28;20477;-43
2022/12/04 04:10:44;;;;;;;53.13;21.50;;;;;;;4.74;60.11;101929.25;5052268;28;20025;-45
2022/12/04 04:24:40;;;;;;;58.55;22.10;;;;;;;4.74;60.20;101928.38;5052318;28;20044;-42
2022/12/04 04:27:06;;;;;;;59.20;23.10;;;;;;;4.56;60.16;101925.69;5046023;28;20071;-44
2022/12/04 04:29:31;;;;;;;55.75;21.98;;;;;;;4.86;60.05;101929.91;5052828;28;20020;-45
2022/12/04 04:32:20;;;;;;;58.83;22.50;;;;;;;4.80;59.77;101927.00;5052390;28;20100;-44
2022/12/04 04:34:57;;;;;;;58.65;22.65;;;;;;;4.37;60.63;101922.91;5052271;28;21996;-43
2022/12/04 04:37:53;;;;;;;57.30;22.10;;;;;;;4.22;61.34;101929.78;5052324;28;20029;-43
2022/12/04 04:40:24;;;;;;;57.42;22.02;;;;;;;4.54;60.79;101928.97;5052092;28;20048;-43
2022/12/04 04:43:01;;;;;;;57.17;22.65;;;;;;;4.58;60.30;101934.38;5052021;28;20016;-43
2022/12/04 04:45:35;;;;;;;61.45;23.73;;;;;;;4.57;59.98;101934.34;5051826;28;20528;-43
2022/12/04 04:48:15;;;;;;;58.30;23.00;;;;;;;4.77;59.94;101946.59;5052006;28;20463;-43
2022/12/04 04:50:41;;;;;;;59.53;22.75;;;;;;;4.39;60.55;101949.72;5052023;28;20057;-43
2022/12/04 04:53:20;;;;;;;52.80;21.90;;;;;;;4.74;60.21;101941.28;5051735;28;20566;-45
2022/12/04 04:55:46;;;;;;;58.63;22.25;;;;;;;4.58;60.21;101936.06;5051786;28;20021;-42
2022/12/04 04:58:15;;;;;;;57.75;22.25;;;;;;;4.31;60.97;101938.94;5051604;28;20158;-44
2022/12/04 05:00:57;;;;;;;56.72;22.73;;;;;;;4.45;60.30;101938.00;5051091;28;20075;-44
2022/12/04 05:03:22;;;;;;;54.85;22.67;;;;;;;4.71;60.55;101943.69;5052103;28;20028;-43
2022/12/04 05:05:48;;;;;;;57.88;22.75;;;;;;;4.67;60.27;101942.66;5051131;28;20327;-42
2022/12/04 05:08:13;;;;;;;55.00;22.45;;;;;;;4.43;59.91;101942.22;5051574;28;20389;-43
2022/12/04 05:10:38;;;;;;;61.95;23.92;;;;;;;4.79;60.16;101942.41;5051222;28;20025;-42
2022/12/04 05:13:03;;;;;;;58.92;22.42;;;;;;;4.52;60.58;101934.06;5051444;28;20039;-43
2022/12/04 05:15:29;;;;;;;64.10;23.55;;;;;;;4.56;60.30;101933.44;5051372;28;20070;-43
2022/12/04 05:17:54;;;;;;;58.08;22.00;;;;;;;4.93;59.48;101936.31;5051870;28;20104;-45
2022/12/04 05:20:19;;;;;;;57.80;23.48;;;;;;;4.78;60.31;101951.84;5051142;28;20116;-44
2022/12/04 05:22:45;;;;;;;58.00;22.63;;;;;;;4.47;60.37;101938.97;5051755;28;20021;-44
2022/12/04 05:25:10;;;;;;;54.28;22.45;;;;;;;4.47;60.37;101932.91;5051575;28;20017;-44
2022/12/04 05:27:36;;;;;;;59.83;22.65;;;;;;;4.50;60.87;101946.00;5051751;28;20021;-43
2022/12/04 05:30:02;;;;;;;60.20;24.42;;;;;;;4.24;61.67;101956.59;5052019;28;20051;-44
2022/12/04 05:32:28;;;;;;;57.70;22.35;;;;;;;4.46;61.51;101955.25;5051448;28;20029;-43
2022/12/04 05:34:54;;;;;;;60.97;23.00;;;;;;;4.35;61.59;101955.47;5051803;28;20048;-42
2022/12/04 05:37:21;;;;;;;59.85;22.85;;;;;;;4.31;61.24;101949.28;5052031;28;20036;-44
2022/12/04 05:39:46;;;;;;;62.53;23.15;;;;;;;4.54;61.21;101955.69;5052357;28;20024;-44
2022/12/04 05:42:12;;;;;;;60.08;23.73;;;;;;;4.67;60.47;101949.50;5053250;28;20033;-44
2022/12/04 05:44:38;;;;;;;58.97;22.52;;;;;;;4.78;60.92;101956.13;5053678;28;20025;-44
2022/12/04 05:47:03;;;;;;;57.15;23.20;;;;;;;4.70;61.21;101945.38;5053934;28;20033;-43
2022/12/04 05:49:30;;;;;;;56.30;23.23;;;;;;;4.57;61.02;101945.56;5051815;28;20024;-43
2022/12/04 05:51:55;;;;;;;53.92;22.52;;;;;;;4.13;62.00;101957.69;5051794;28;20060;-41
2022/12/04 05:54:20;;;;;;;61.83;23.80;;;;;;;4.20;61.82;101945.22;5052467;28;20397;-43
2022/12/04 05:56:46;;;;;;;60.33;23.38;;;;;;;4.23;61.11;101942.78;5052528;28;20025;-42
2022/12/04 05:59:12;;;;;;;55.35;22.85;;;;;;;4.17;61.99;101957.94;5053236;28;20047;-45
2022/12/04 06:01:38;;;;;;;58.97;22.92;;;;;;;4.11;61.78;101957.59;5051625;28;20053;-42
2022/12/04 06:04:03;;;;;;;60.78;23.85;;;;;;;4.12;62.40;101958.47;5050887;28;20496;-46
2022/12/04 06:06:29;;;;;;;58.05;23.05;;;;;;;4.59;61.05;101954.25;5050978;28;20036;-46
2022/12/04 06:08:56;;;;;;;61.50;23.75;;;;;;;4.60;60.91;101939.66;5050906;28;20074;-44
2022/12/04 06:11:28;;;;;;;57.45;23.25;;;;;;;4.49;61.08;101950.28;5050780;28;20028;-44
2022/12/04 06:13:55;;;;;;;58.17;23.00;;;;;;;4.63;61.00;101956.22;5050005;28;20056;-44
2022/12/04 06:16:27;;;;;;;59.38;23.63;;;;;;;4.69;60.98;101953.06;5051288;28;20035;-43
2022/12/04 06:18:57;;;;;;;64.20;24.92;;;;;;;4.47;61.35;101957.06;5051547;28;20056;-43
2022/12/04 06:21:24;;;;;;;57.85;23.70;;;;;;;4.72;60.96;101953.22;5051559;28;20305;-42
2022/12/04 06:23:50;;;;;;;56.30;23.50;;;;;;;4.07;62.03;101946.22;5052060;28;20037;-42
2022/12/04 06:26:16;;;;;;;55.67;23.08;;;;;;;4.01;62.45;101951.03;5050591;28;20439;-44
2022/12/04 06:28:42;;;;;;;58.75;23.90;;;;;;;4.52;61.75;101946.97;5051005;28;20017;-43
2022/12/04 06:31:10;;;;;;;56.70;22.95;;;;;;;4.42;61.89;101955.03;5050088;28;20051;-44
2022/12/04 06:33:36;;;;;;;57.47;23.05;;;;;;;4.36;62.24;101954.69;5050617;28;20021;-42
2022/12/04 06:36:04;;;;;;;63.72;23.15;;;;;;;4.01;62.30;101942.41;5050254;28;20488;-45
2022/12/04 06:38:29;;;;;;;60.10;23.13;;;;;;;4.08;62.77;101955.75;5050124;28;20021;-46
2022/12/04 06:40:55;;;;;;;62.60;23.65;;;;;;;4.15;62.77;101949.19;5049657;28;20025;-44
2022/12/04 06:43:21;;;;;;;56.08;23.42;;;;;;;4.28;62.33;101945.63;5050035;28;20397;-41
2022/12/04 06:45:46;;;;;;;60.05;23.55;;;;;;;4.31;62.29;101946.69;5049956;28;20193;-44
2022/12/04 06:48:11;;;;;;;61.30;24.33;;;;;;;4.33;62.49;101950.22;5050044;28;20028;-48
2022/12/04 06:50:37;;;;;;;60.92;23.63;;;;;;;4.28;62.49;101954.25;5050038;28;20029;-42
2022/12/04 06:53:02;;;;;;;61.33;23.73;;;;;;;4.21;62.59;101948.69;5050771;28;20396;-45
2022/12/04 06:55:27;;;;;;;55.63;23.13;;;;;;;4.18;62.98;101944.22;5049911;28;20470;-43
2022/12/04 06:57:53;;;;;;;59.67;23.20;;;;;;;4.36;62.22;101940.09;5049949;28;20545;-43
2022/12/04 07:00:18;;;;;;;59.78;22.98;;;;;;;4.78;61.70;101945.81;5049718;28;20435;-44
2022/12/04 07:02:43;;;;;;;60.35;23.33;;;;;;;4.70;61.21;101942.78;5049884;28;20031;-44
2022/12/04 07:05:09;;;;;;;61.58;23.23;;;;;;;4.33;62.71;101945.06;5049915;28;20021;-44
2022/12/04 07:07:35;;;;;;;63.42;23.67;;;;;;;4.56;61.68;101943.78;5049761;28;20051;-45
2022/12/04 07:10:01;;;;;;;58.88;23.23;;;;;;;4.39;62.53;101952.28;5052362;28;20104;-44
2022/12/04 07:12:26;;;;;;;59.50;24.10;;;;;;;4.25;62.57;101943.78;5053712;28;20032;-43
2022/12/04 07:14:51;;;;;;;63.65;24.02;;;;;;;4.20;61.95;101942.63;5053403;28;20541;-43
2022/12/04 07:17:17;;;;;;;65.07;24.50;;;;;;;4.63;61.05;101945.88;5052683;28;20025;-43
2022/12/04 07:19:42;;;;;;;60.47;24.35;;;;;;;4.39;61.48;101949.72;5054206;28;20037;-42
2022/12/04 07:22:07;;;;;;;58.70;23.92;;;;;;;4.01;62.88;101947.56;5053772;28;20028;-45
2022/12/04 07:24:34;;;;;;;62.55;23.55;;;;;;;4.31;62.53;101957.03;5054178;28;20025;-44
2022/12/04 07:26:59;;;;;;;59.55;23.27;;;;;;;4.52;61.60;101951.25;5054171;28;20029;-42
2022/12/04 07:29:25;;;;;;;58.45;23.67;;;;;;;4.55;61.47;101948.84;5055238;28;20017;-44
2022/12/04 07:31:50;;;;;;;55.88;22.88;;;;;;;4.30;62.72;101954.34;5055519;28;20032;-41
2022/12/04 07:34:15;;;;;;;59.08;23.08;;;;;;;4.59;62.14;101951.66;5055138;28;20048;-43
2022/12/04 07:36:41;;;;;;;60.08;23.05;;;;;;;4.89;61.09;101953.31;5055235;28;20124;-42
2022/12/04 07:39:06;;;;;;;58.25;23.42;;;;;;;4.85;61.12;101953.97;5054445;28;20197;-43
2022/12/04 07:41:31;;;;;;;56.17;23.15;;;;;;;4.41;61.86;101950.66;5054847;28;20029;-43
2022/12/04 07:43:56;;;;;;;58.85;23.23;;;;;;;4.62;62.06;101948.38;5053998;28;20036;-45
2022/12/04 07:46:25;;;;;;;55.47;22.40;;;;;;;4.58;61.62;101943.81;5053651;28;20017;-43
2022/12/04 07:48:50;;;;;;;57.22;23.60;;;;;;;4.46;61.78;101950.09;5054175;28;20020;-42
2022/12/04 07:51:18;;;;;;;57.60;22.85;;;;;;;4.76;61.13;101957.72;5053970;28;20032;-44
2022/12/04 07:53:44;;;;;;;57.17;23.65;;;;;;;4.86;61.23;101963.50;5054239;28;20050;-42
2022/12/04 07:56:11;;;;;;;57.67;22.40;;;;;;;4.59;61.08;101959.41;5055249;28;20708;-43
2022/12/04 07:58:37;;;;;;;56.85;23.00;;;;;;;4.54;61.74;101967.72;5055415;28;20543;-46
2022/12/04 08:01:12;;;;;;;58.10;22.77;;;;;;;4.64;61.11;101955.38;5056484;28;20037;-42
2022/12/04 08:03:39;;;;;;;53.55;22.30;;;;;;;4.72;60.98;101969.63;5055951;28;20035;-46
2022/12/04 08:06:05;;;;;;;53.40;22.55;;;;;;;4.74;61.26;101972.28;5053242;28;20029;-46
2022/12/04 08:08:30;;;;;;;56.42;23.15;;;;;;;4.89;60.36;101973.97;5052746;28;20067;-44
2022/12/04 08:10:56;;;;;;;56.63;23.13;;;;;;;4.76;61.50;101968.97;5052869;28;20037;-45
2022/12/04 08:13:23;;;;;;;58.80;22.95;;;;;;;4.60;60.67;101974.09;5052450;28;20095;-42
2022/12/04 08:15:48;;;;;;;55.15;22.67;;;;;;;4.60;61.68;101979.28;5052799;28;20052;-44
2022/12/04 08:18:14;;;;;;;57.75;22.20;;;;;;;4.72;61.83;101973.88;5053035;28;20090;-48
2022/12/04 08:20:39;;;;;;;58.05;22.38;;;;;;;4.41;61.70;101979.94;5052194;28;20111;-44
2022/12/04 08:23:04;;;;;;;54.75;22.10;;;;;;;4.29;62.39;101981.84;5052858;28;20013;-43
2022/12/04 08:25:30;;;;;;;54.60;21.77;;;;;;;4.26;61.99;101983.38;5052667;28;20436;-42
2022/12/04 08:27:55;;;;;;;53.65;21.98;;;;;;;4.50;61.42;101987.34;5052787;28;20435;-44
2022/12/04 08:30:20;;;;;;;53.67;21.17;;;;;;;4.50;62.48;101989.91;5052637;28;20060;-44
2022/12/04 08:32:46;;;;;;;57.03;22.85;;;;;;;4.41;62.31;101987.69;5052935;28;20108;-43
2022/12/04 08:35:11;;;;;;;57.17;23.20;;;;;;;4.62;61.52;101988.00;5053764;28;20476;-44
2022/12/04 08:37:37;;;;;;;53.20;22.23;;;;;;;4.49;61.07;101978.69;5055914;28;20037;-43
2022/12/04 08:40:02;;;;;;;51.17;21.27;;;;;;;4.30;62.25;101988.78;5052966;28;20028;-42
2022/12/04 08:42:28;;;;;;;56.95;22.80;;;;;;;4.32;62.39;101988.88;5057067;28;20035;-43
2022/12/04 08:44:53;;;;;;;53.92;22.17;;;;;;;4.59;62.05;101992.09;5059595;28;20025;-44
2022/12/04 08:47:18;;;;;;;51.35;21.25;;;;;;;4.65;61.45;101990.75;5057668;28;20397;-44
2022/12/04 08:49:44;;;;;;;56.00;22.23;;;;;;;4.66;61.67;101999.38;5056125;28;20024;-43
2022/12/04 08:52:09;;;;;;;53.40;21.65;;;;;;;4.61;61.63;101990.50;5060233;28;20153;-44
2022/12/04 08:54:34;;;;;;;51.33;21.30;;;;;;;4.31;62.16;101993.16;5057024;28;20032;-46
2022/12/04 08:57:00;;;;;;;52.40;22.10;;;;;;;4.61;62.33;102006.00;5053626;28;20122;-43
2022/12/04 08:59:25;;;;;;;60.10;23.42;;;;;;;4.40;62.00;102000.50;5054789;28;20560;-41
2022/12/04 09:01:50;;;;;;;53.88;22.38;;;;;;;5.00;61.07;102008.16;5062270;28;20028;-45
2022/12/04 09:04:17;;;;;;;53.75;21.55;;;;;;;5.13;60.53;102007.09;5068807;28;20009;-47
2022/12/04 09:06:42;;;;;;;58.28;22.58;;;;;;;4.73;60.91;102009.25;5068887;28;20059;-43
2022/12/04 09:09:07;;;;;;;54.33;22.48;;;;;;;5.03;60.55;102007.44;5061012;28;20024;-41
2022/12/04 09:11:33;;;;;;;56.83;23.33;;;;;;;5.03;60.68;102013.50;5054918;28;20138;-44
2022/12/04 09:14:01;;;;;;;52.45;22.08;;;;;;;5.07;60.40;102018.00;5077416;22;20052;-41
2022/12/04 09:16:26;;;;;;;52.47;21.75;;;;;;;5.21;60.55;102018.75;5055342;28;20028;-42
2022/12/04 09:18:52;;;;;;;55.10;21.83;;;;;;;5.32;59.83;102015.03;5054730;28;20035;-42
2022/12/04 09:21:19;;;;;;;54.00;21.90;;;;;;;5.03;61.05;102015.19;5053272;28;20052;-42
2022/12/04 09:23:45;;;;;;;54.28;22.08;;;;;;;4.89;60.93;102009.28;5054142;28;20480;-41
2022/12/04 09:26:23;;;;;;;55.40;22.45;;;;;;;5.07;60.72;102005.09;5055853;28;20170;-42
2022/12/04 09:28:50;;;;;;;60.35;22.67;;;;;;;4.90;60.62;102004.19;5055949;28;20116;-42
2022/12/04 09:31:16;;;;;;;58.40;22.35;;;;;;;4.70;61.42;101999.63;5054212;28;20191;-42
2022/12/04 09:33:41;;;;;;;57.25;22.80;;;;;;;4.74;61.10;102011.03;5054611;28;20076;-43
2022/12/04 09:36:07;;;;;;;57.35;22.58;;;;;;;4.80;61.57;102017.44;5053866;28;20021;-41
2022/12/04 09:38:33;;;;;;;53.30;22.02;;;;;;;4.98;60.81;102014.06;5052606;28;20411;-41
2022/12/04 09:41:15;;;;;;;53.60;22.13;;;;;;;4.73;61.80;102014.41;5051315;28;20032;-43
2022/12/04 09:43:53;;;;;;;56.35;22.00;;;;;;;4.93;61.40;102013.81;5051014;28;20146;-42
2022/12/04 09:46:27;;;;;;;59.75;23.15;;;;;;;5.01;61.20;102009.03;5051037;28;20025;-42
2022/12/04 09:48:57;;;;;;;54.25;22.25;;;;;;;4.84;61.49;102008.13;5051630;28;20051;-42
2022/12/04 09:51:25;;;;;;;54.97;22.20;;;;;;;4.70;61.68;102007.38;5052104;28;20096;-40
2022/12/04 09:54:10;;;;;;;59.33;22.80;;;;;;;5.00;60.54;102005.56;5051459;28;20107;-42
2022/12/04 09:56:35;;;;;;;57.45;22.45;;;;;;;5.03;60.59;102008.31;5051318;28;20104;-41
2022/12/04 09:59:18;;;;;;;58.42;22.55;;;;;;;5.14;60.57;102008.88;5050471;28;20536;-40
2022/12/04 10:02:21;;;;;;;58.47;22.15;;;;;;;5.01;61.18;102006.44;5054579;28;20032;-44
2022/12/04 10:04:46;;;;;;;57.60;22.67;;;;;;;5.15;60.52;102010.66;5054511;28;20032;-40
2022/12/04 10:07:34;;;;;;;55.03;21.40;;;;;;;4.94;60.65;102001.78;5054432;28;20036;-40
2022/12/04 10:10:09;;;;;;;58.10;22.75;;;;;;;5.13;60.25;102010.59;5052178;28;20028;-39
2022/12/04 10:13:00;;;;;;;52.28;22.38;;;;;;;4.56;61.05;102004.84;5051957;28;20169;-40
2022/12/04 10:15:52;;;;;;;53.42;21.58;;;;;;;4.96;60.46;102003.63;5050883;28;20037;-42
2022/12/04 10:18:31;;;;;;;55.45;21.23;;;;;;;4.97;60.61;101999.34;5051968;28;20028;-44
2022/12/04 10:21:04;;;;;;;55.78;22.98;;;;;;;4.95;61.23;102006.13;5050703;28;20465;-43
2022/12/04 10:23:38;;;;;;;55.88;22.00;;;;;;;5.04;60.73;102006.63;5052665;28;20029;-41
2022/12/04 10:26:12;;;;;;;58.75;22.30;;;;;;;4.94;60.95;102012.13;5054791;28;20031;-41
2022/12/04 10:28:42;;;;;;;53.95;21.65;;;;;;;4.97;61.21;102001.94;5054759;28;20389;-40
2022/12/04 10:31:12;;;;;;;54.20;21.83;;;;;;;5.11;60.20;101998.41;5052869;28;20036;-42
2022/12/04 10:34:10;;;;;;;55.70;22.33;;;;;;;5.47;59.42;101999.44;5050715;28;20033;-40
2022/12/04 10:36:36;;;;;;;56.63;22.27;;;;;;;5.57;59.42;101988.75;5048850;28;20047;-42
2022/12/04 10:39:14;;;;;;;53.58;22.02;;;;;;;5.31;59.51;101992.56;5050625;28;20100;-41
2022/12/04 10:42:00;;;;;;;57.78;21.90;;;;;;;5.43;59.92;101993.19;5050076;28;20493;-42
2022/12/04 10:44:26;;;;;;;51.83;21.50;;;;;;;5.17;59.73;101991.88;5050575;28;20040;-40
2022/12/04 10:46:56;;;;;;;55.47;22.52;;;;;;;5.27;60.20;101983.78;5052829;28;20025;-41
2022/12/04 10:49:35;;;;;;;54.50;21.42;;;;;;;5.15;59.88;101982.25;5051175;28;20459;-42
2022/12/04 10:52:00;;;;;;;53.13;21.40;;;;;;;5.26;59.89;101984.56;5051467;28;20139;-46
2022/12/04 10:54:34;;;;;;;54.28;21.88;;;;;;;5.22;59.75;101981.75;5052489;28;20381;-41
2022/12/04 10:57:02;;;;;;;47.10;20.83;;;;;;;5.42;59.39;101975.94;5051148;28;20021;-41
2022/12/04 10:59:29;;;;;;;50.00;20.70;;;;;;;5.32;60.01;101982.31;5052850;28;20066;-40
2022/12/04 11:02:13;;;;;;;48.65;20.30;;;;;;;5.21;60.29;101988.63;5054719;28;20068;-39
2022/12/04 11:04:40;;;;;;;53.90;21.10;;;;;;;5.06;60.89;101985.22;5055822;28;20056;-39
2022/12/04 11:07:17;;;;;;;46.88;20.00;;;;;;;5.51;60.61;101980.66;5055828;28;20021;-42
2022/12/04 11:09:43;;;;;;;48.95;20.90;;;;;;;5.66;59.75;101977.19;5055158;28;20033;-42
2022/12/04 11:12:17;;;;;;;51.03;20.65;;;;;;;5.53;59.90;101973.88;5051792;28;20040;-39
2022/12/04 11:14:43;;;;;;;44.22;19.25;;;;;;;5.14;60.56;101976.19;5049953;28;20476;-40
2022/12/04 11:17:15;;;;;;;46.45;19.23;;;;;;;5.26;60.62;101975.94;5050611;28;20025;-41
2022/12/04 11:19:40;;;;;;;48.30;19.38;;;;;;;5.25;61.14;101972.44;5048960;28;20037;-40
2022/12/04 11:22:16;;;;;;;49.25;19.58;;;;;;;5.52;60.20;101970.41;5050162;28;20021;-39
2022/12/04 11:24:48;;;;;;;46.75;18.50;;;;;;;5.76;59.67;101963.00;5050406;28;20029;-45
2022/12/04 11:27:22;;;;;;;50.10;20.08;;;;;;;5.41;59.45;101962.91;5051531;28;20140;-43
2022/12/04 11:29:48;;;;;;;44.45;18.15;;;;;;;5.08;60.83;101959.47;5053773;28;20070;-42
2022/12/04 11:32:24;;;;;;;44.22;18.40;;;;;;;5.09;61.32;101956.06;5052875;28;20025;-42
2022/12/04 11:34:52;;;;;;;45.72;18.80;;;;;;;5.55;60.14;101960.22;5050117;28;20025;-42
2022/12/04 11:37:23;;;;;;;40.58;17.50;;;;;;;4.98;61.16;101957.22;5052832;28;20021;-42
2022/12/04 11:39:50;;;;;;;42.50;17.35;;;;;;;5.32;61.00;101951.28;5052241;28;20170;-40